首页
METAR-TAF:

METAR-TAF

机场 :

St. Catharines, 安大略省, 加拿大

纬度: 43-12N, 经度: 079-10W, 海拔: 98米

当前天气观测

该预报发布于45分钟前的11:00 UTC
风速2节,风向北转东北
温度 16°C
湿度 100%
气压 1002 hPa
能見度: 16.1公里
少量云层高于5000英尺
阴天层高于12000英尺
小雨

METAR: CYSN 201100Z 02002KT 10SM -RA FEW050 OVC120 16/16 A2958 RMK SC1AC7 SLP017 DENSITY ALT 1000FT

时间: 07:45 (11:45 UTC)

预报

该预报发布于16小时和6分钟前的19:39 UTC
预报有效从19日的 20点(UTC)到 20日的 01点(UTC)
风速6节,风向
能見度: 10公里
少量云层高于10000英尺
多云层高于20000英尺

TAF: CYSN 191939Z 1920/2001 35006KT P6SM FEW100 BKN200 RMK NXT FCST WILL BE ISSUED AT 201245Z

超过4000个机场的气象观测和天气预报(METAR&TAF报告)。

可查询的气象台以黄色和红色小点在地图上表示。

将鼠标移到小点上方,可查看气象台名称。

然后点击查看天气观测和预报。

如需切换地图:点击带黑十字的绿色按钮放大地图;点击带横线的绿色按钮缩小地图;或者点击绿色箭头查看邻近地区的地图。


METAR-TAF: